createdAt,value
2018-03-06T00:02:19.409Z,5.50
2018-03-06T00:04:47.255Z,5.50
2018-03-06T00:07:14.703Z,5.60
2018-03-06T00:09:42.940Z,5.70
2018-03-06T00:12:10.413Z,5.70
2018-03-06T00:14:37.962Z,5.60
2018-03-06T00:17:09.766Z,5.70
2018-03-06T00:19:37.764Z,5.60
2018-03-06T00:22:06.025Z,5.60
2018-03-06T00:24:33.595Z,5.50
2018-03-06T00:27:03.513Z,5.50
2018-03-06T00:29:33.106Z,5.50
2018-03-06T00:32:00.685Z,5.40
2018-03-06T00:34:29.559Z,5.30
2018-03-06T00:37:01.108Z,5.20
2018-03-06T00:39:28.575Z,5.30
2018-03-06T00:41:57.078Z,5.20
2018-03-06T00:44:25.076Z,5.20
2018-03-06T00:46:52.548Z,5.20
2018-03-06T00:49:20.016Z,5.10
2018-03-06T00:51:47.718Z,5.00
2018-03-06T00:54:15.490Z,5.10
2018-03-06T00:56:43.004Z,5.10
2018-03-06T00:59:10.642Z,5.10
2018-03-06T01:01:38.872Z,5.10
2018-03-06T01:04:06.323Z,5.10
2018-03-06T01:06:33.779Z,4.90
2018-03-06T01:09:02.304Z,4.90
2018-03-06T01:11:29.760Z,4.90
2018-03-06T01:13:57.196Z,4.90
2018-03-06T01:16:24.671Z,4.90
2018-03-06T01:18:52.884Z,4.80
2018-03-06T01:21:20.344Z,4.80
2018-03-06T01:23:48.169Z,4.80
2018-03-06T01:26:16.810Z,4.80
2018-03-06T01:28:44.426Z,4.70
2018-03-06T01:31:12.496Z,4.80
2018-03-06T01:33:39.983Z,4.80
2018-03-06T01:36:07.576Z,4.70
2018-03-06T01:38:35.049Z,4.80
2018-03-06T01:41:03.280Z,4.80
2018-03-06T01:43:31.529Z,4.80
2018-03-06T01:45:59.766Z,4.70
2018-03-06T01:48:27.256Z,4.60
2018-03-06T01:50:54.828Z,4.60
2018-03-06T01:53:22.276Z,4.50
2018-03-06T01:55:53.922Z,4.50
2018-03-06T01:58:21.374Z,4.60
2018-03-06T02:00:48.828Z,4.50
2018-03-06T02:03:16.292Z,4.60
2018-03-06T02:05:43.764Z,4.60
2018-03-06T02:08:11.232Z,4.60
2018-03-06T02:10:39.263Z,4.70
2018-03-06T02:13:06.811Z,4.70
2018-03-06T02:15:35.371Z,4.70
2018-03-06T02:18:02.813Z,4.70
2018-03-06T02:20:30.425Z,4.70
2018-03-06T02:22:57.884Z,4.60
2018-03-06T02:25:25.344Z,4.60
2018-03-06T02:27:52.815Z,4.40
2018-03-06T02:30:20.285Z,4.20
2018-03-06T02:32:47.779Z,4.20
2018-03-06T02:35:16.004Z,4.00
2018-03-06T02:37:43.474Z,4.00
2018-03-06T02:40:10.924Z,4.00
2018-03-06T02:42:38.471Z,3.90
2018-03-06T02:45:05.932Z,4.00
2018-03-06T02:50:07.268Z,3.80
2018-03-06T02:52:34.772Z,3.70
2018-03-06T02:55:02.231Z,3.70
2018-03-06T02:57:29.712Z,3.60
2018-03-06T02:59:57.170Z,3.70
2018-03-06T03:02:25.399Z,3.80
2018-03-06T03:04:53.659Z,3.80
2018-03-06T03:07:21.108Z,3.80
2018-03-06T03:09:48.599Z,3.70
2018-03-06T03:12:16.072Z,3.70
2018-03-06T03:14:43.536Z,3.80
2018-03-06T03:17:10.975Z,3.80
2018-03-06T03:19:38.464Z,3.60
2018-03-06T03:22:05.907Z,3.40
2018-03-06T03:24:33.380Z,3.60
2018-03-06T03:27:00.829Z,3.70
2018-03-06T03:29:29.069Z,3.70
2018-03-06T03:31:56.708Z,3.70
2018-03-06T03:34:24.217Z,3.70
2018-03-06T03:36:51.651Z,3.60
2018-03-06T03:39:19.124Z,3.60
2018-03-06T03:41:46.564Z,3.70
2018-03-06T03:44:14.107Z,3.50
2018-03-06T03:46:41.552Z,3.50
2018-03-06T03:49:09.033Z,3.60
2018-03-06T03:51:36.489Z,3.60
2018-03-06T03:54:03.981Z,3.60
2018-03-06T03:56:32.295Z,3.60
2018-03-06T03:58:59.773Z,3.60
2018-03-06T04:01:28.468Z,3.60
2018-03-06T04:03:55.929Z,3.60
2018-03-06T04:06:23.378Z,3.60
2018-03-06T04:08:59.490Z,3.60
2018-03-06T04:11:26.948Z,3.60
2018-03-06T04:13:54.417Z,3.50
2018-03-06T04:16:21.886Z,3.40
2018-03-06T04:18:49.332Z,3.40
2018-03-06T04:21:16.798Z,3.30
2018-03-06T04:23:44.244Z,3.40
2018-03-06T04:26:11.722Z,3.30
2018-03-06T04:28:39.173Z,3.30
2018-03-06T04:31:06.679Z,3.30
2018-03-06T04:33:34.267Z,3.40
2018-03-06T04:36:01.830Z,3.40
2018-03-06T04:38:29.286Z,3.40
2018-03-06T04:40:56.770Z,3.30
2018-03-06T04:43:24.304Z,3.30
2018-03-06T04:45:51.841Z,3.30
2018-03-06T04:48:19.522Z,3.30
2018-03-06T04:50:46.974Z,3.30
2018-03-06T04:53:14.430Z,3.40
2018-03-06T04:55:41.891Z,3.30
2018-03-06T04:58:09.347Z,3.40
2018-03-06T05:00:36.807Z,3.40
2018-03-06T05:03:04.291Z,3.40
2018-03-06T05:05:31.757Z,3.40
2018-03-06T05:07:59.188Z,3.40
2018-03-06T05:10:26.642Z,3.40
2018-03-06T05:12:54.120Z,3.30
2018-03-06T05:15:21.556Z,3.30
2018-03-06T05:17:49.035Z,3.40
2018-03-06T05:20:17.259Z,3.40
2018-03-06T05:22:44.744Z,3.30
2018-03-06T05:25:12.206Z,3.40
2018-03-06T05:27:39.719Z,3.30
2018-03-06T05:30:07.157Z,3.30
2018-03-06T05:32:34.628Z,3.30
2018-03-06T05:35:02.070Z,3.30
2018-03-06T05:37:29.524Z,3.10
2018-03-06T05:39:57.044Z,3.30
2018-03-06T05:42:24.534Z,3.30
2018-03-06T05:44:52.779Z,3.30
2018-03-06T05:47:20.264Z,3.30
2018-03-06T05:49:48.515Z,3.40
2018-03-06T05:52:15.979Z,3.40
2018-03-06T05:54:43.450Z,3.40
2018-03-06T05:57:11.658Z,3.30
2018-03-06T05:59:39.140Z,3.30
2018-03-06T06:02:06.628Z,3.30
2018-03-06T06:04:34.103Z,3.20
2018-03-06T06:07:01.545Z,3.30
2018-03-06T06:09:29.843Z,3.20
2018-03-06T06:11:57.295Z,3.20
2018-03-06T06:14:24.756Z,3.20
2018-03-06T06:16:52.329Z,3.30
2018-03-06T06:19:19.849Z,3.30
2018-03-06T06:21:47.278Z,3.30
2018-03-06T06:24:14.767Z,3.30
2018-03-06T06:26:42.346Z,3.30
2018-03-06T06:29:09.778Z,3.40
2018-03-06T06:31:37.287Z,3.30
2018-03-06T06:34:04.798Z,3.40
2018-03-06T06:36:32.362Z,3.50
2018-03-06T06:38:59.803Z,3.50
2018-03-06T06:41:28.069Z,3.70
2018-03-06T06:43:56.244Z,3.70
2018-03-06T06:46:24.471Z,3.80
2018-03-06T06:48:51.923Z,3.70
2018-03-06T06:51:19.608Z,3.80
2018-03-06T06:53:47.085Z,3.90
2018-03-06T06:56:14.553Z,4.00
2018-03-06T06:58:42.802Z,4.00
2018-03-06T07:01:10.242Z,4.00
2018-03-06T07:03:37.703Z,3.90
2018-03-06T07:06:05.183Z,3.90
2018-03-06T07:08:32.629Z,4.00
2018-03-06T07:11:00.153Z,4.10
2018-03-06T07:13:27.637Z,4.10
2018-03-06T07:15:55.184Z,4.10
2018-03-06T07:18:22.649Z,4.10
2018-03-06T07:20:50.136Z,4.10
2018-03-06T07:23:18.381Z,4.40
2018-03-06T07:25:45.851Z,4.40
2018-03-06T07:28:13.311Z,4.50
2018-03-06T07:30:40.779Z,4.60
2018-03-06T07:33:09.019Z,4.70
2018-03-06T07:35:36.479Z,4.70
2018-03-06T07:38:03.998Z,4.80
2018-03-06T07:40:43.552Z,4.90
2018-03-06T07:43:11.073Z,5.10
2018-03-06T07:45:39.315Z,5.20
2018-03-06T07:48:08.150Z,5.20
2018-03-06T07:50:35.631Z,5.20
2018-03-06T07:53:03.075Z,5.10
2018-03-06T07:55:30.997Z,4.90
2018-03-06T07:57:59.263Z,4.90
2018-03-06T08:00:26.759Z,4.90
2018-03-06T08:02:54.229Z,5.20
2018-03-06T08:05:21.706Z,5.70
2018-03-06T08:07:49.145Z,5.90
2018-03-06T08:10:16.615Z,6.10
2018-03-06T08:12:44.146Z,6.00
2018-03-06T08:15:11.633Z,6.10
2018-03-06T08:17:39.146Z,6.10
2018-03-06T08:20:06.616Z,6.20
2018-03-06T08:22:34.112Z,6.10
2018-03-06T08:25:01.552Z,6.10
2018-03-06T08:27:29.034Z,6.50
2018-03-06T08:29:56.505Z,6.60
2018-03-06T08:32:23.950Z,6.30
2018-03-06T08:34:51.392Z,5.70
2018-03-06T08:37:18.933Z,6.00
2018-03-06T08:39:46.396Z,6.30
2018-03-06T08:42:13.872Z,6.40
2018-03-06T08:44:41.334Z,6.00
2018-03-06T08:47:08.787Z,6.50
2018-03-06T08:49:36.302Z,6.90
2018-03-06T08:52:03.758Z,7.30
2018-03-06T08:54:31.219Z,7.50
2018-03-06T08:56:58.729Z,7.20
2018-03-06T08:59:27.021Z,6.70
2018-03-06T09:01:54.518Z,6.70
2018-03-06T09:04:21.991Z,7.10
2018-03-06T09:06:49.462Z,7.40
2018-03-06T09:09:16.957Z,7.40
2018-03-06T09:11:44.440Z,7.30
2018-03-06T09:14:11.970Z,7.20
2018-03-06T09:16:39.416Z,7.40
2018-03-06T09:19:06.919Z,7.50
2018-03-06T09:21:34.371Z,7.70
2018-03-06T09:24:02.049Z,8.20
2018-03-06T09:26:29.531Z,8.70
2018-03-06T09:28:57.819Z,9.10
2018-03-06T09:31:25.856Z,9.10
2018-03-06T09:33:53.334Z,9.30
2018-03-06T09:36:20.791Z,9.50
2018-03-06T09:38:48.996Z,9.30
2018-03-06T09:41:16.468Z,9.30
2018-03-06T09:43:43.976Z,9.50
2018-03-06T09:46:11.442Z,9.50
2018-03-06T09:48:39.678Z,9.80
2018-03-06T09:51:07.171Z,9.80
2018-03-06T09:53:35.379Z,10.10
2018-03-06T09:56:02.855Z,10.10
2018-03-06T09:58:30.336Z,10.50
2018-03-06T10:00:57.864Z,10.50
2018-03-06T10:03:25.310Z,10.90
2018-03-06T10:05:52.777Z,10.60
2018-03-06T10:08:20.240Z,10.60
2018-03-06T10:10:47.710Z,10.70
2018-03-06T10:13:15.931Z,10.90
2018-03-06T10:15:43.460Z,10.90
2018-03-06T10:18:11.700Z,10.40
2018-03-06T10:20:39.972Z,10.50
2018-03-06T10:23:07.427Z,10.50
2018-03-06T10:25:34.882Z,10.80
2018-03-06T10:28:03.067Z,10.60
2018-03-06T10:30:30.511Z,10.60
2018-03-06T10:32:58.005Z,10.40
2018-03-06T10:35:26.176Z,10.50
2018-03-06T10:37:53.696Z,10.40
2018-03-06T10:40:21.165Z,10.40
2018-03-06T10:42:48.803Z,10.60
2018-03-06T10:45:16.247Z,10.70
2018-03-06T10:47:43.925Z,10.70
2018-03-06T10:50:11.355Z,11.10
2018-03-06T10:52:38.804Z,11.20
2018-03-06T10:55:06.392Z,10.70
2018-03-06T10:57:33.884Z,10.70
2018-03-06T11:00:01.337Z,10.50
2018-03-06T11:02:31.576Z,10.80
2018-03-06T11:05:00.010Z,10.70
2018-03-06T11:07:27.496Z,10.70
2018-03-06T11:09:55.021Z,10.70
2018-03-06T11:12:22.461Z,10.90
2018-03-06T11:14:49.936Z,10.90
2018-03-06T11:17:18.063Z,10.40
2018-03-06T11:19:46.328Z,11.10
2018-03-06T11:22:14.549Z,11.30
2018-03-06T11:24:42.377Z,11.40
2018-03-06T11:27:10.326Z,11.10
2018-03-06T11:29:37.812Z,11.80
2018-03-06T11:32:11.092Z,12.30
2018-03-06T11:34:40.450Z,12.70
2018-03-06T11:37:07.925Z,12.60
2018-03-06T11:39:41.360Z,12.60
2018-03-06T11:42:08.830Z,12.30
2018-03-06T11:44:44.666Z,11.60
2018-03-06T11:47:13.081Z,11.90
2018-03-06T11:49:40.536Z,11.90
2018-03-06T11:52:08.195Z,12.20
2018-03-06T11:54:35.625Z,11.80
2018-03-06T11:57:03.106Z,11.80
2018-03-06T11:59:30.540Z,11.50
2018-03-06T12:01:58.079Z,11.40
2018-03-06T12:04:25.469Z,11.20
2018-03-06T12:06:52.939Z,11.50
2018-03-06T12:09:20.433Z,11.70
2018-03-06T12:11:48.013Z,11.40
2018-03-06T12:14:16.318Z,11.60
2018-03-06T12:16:43.820Z,11.50
2018-03-06T12:19:11.308Z,11.80
2018-03-06T12:21:38.802Z,11.60
2018-03-06T12:24:06.338Z,11.30
2018-03-06T12:26:33.790Z,11.40
2018-03-06T12:29:01.255Z,11.60
2018-03-06T12:31:28.715Z,11.80
2018-03-06T12:33:56.169Z,12.10
2018-03-06T12:36:23.649Z,12.50
2018-03-06T12:38:51.947Z,12.70
2018-03-06T12:41:19.400Z,12.50
2018-03-06T12:43:46.864Z,12.70
2018-03-06T12:46:15.094Z,11.80
2018-03-06T12:48:42.559Z,11.70
2018-03-06T12:51:10.021Z,12.00
2018-03-06T12:53:37.516Z,12.20
2018-03-06T12:56:05.787Z,12.40
2018-03-06T12:58:34.088Z,12.60
2018-03-06T13:01:01.554Z,12.60
2018-03-06T13:03:29.051Z,12.70
2018-03-06T13:05:56.540Z,12.90
2018-03-06T13:08:24.774Z,13.10
2018-03-06T13:10:52.377Z,13.10
2018-03-06T13:13:20.592Z,12.80
2018-03-06T13:15:48.079Z,12.80
2018-03-06T13:18:15.511Z,12.90
2018-03-06T13:20:43.024Z,12.50
2018-03-06T13:23:11.284Z,12.50
2018-03-06T13:25:38.760Z,12.50
2018-03-06T13:28:06.975Z,12.90
2018-03-06T13:30:34.436Z,12.90
2018-03-06T13:33:01.900Z,12.20
2018-03-06T13:35:29.351Z,12.50
2018-03-06T13:37:56.829Z,12.60
2018-03-06T13:40:24.288Z,12.60
2018-03-06T13:42:55.735Z,12.80
2018-03-06T13:45:23.228Z,12.40
2018-03-06T13:47:50.717Z,12.60
2018-03-06T13:50:18.195Z,12.40
2018-03-06T13:52:46.828Z,12.60
2018-03-06T13:55:14.278Z,12.90
2018-03-06T13:57:42.696Z,13.10
2018-03-06T14:00:10.128Z,13.20
2018-03-06T14:02:37.620Z,13.50
2018-03-06T14:05:05.168Z,13.70
2018-03-06T14:07:38.037Z,13.70
2018-03-06T14:10:06.351Z,13.70
2018-03-06T14:12:33.875Z,13.70
2018-03-06T14:15:01.350Z,13.50
2018-03-06T14:17:28.820Z,13.70
2018-03-06T14:19:56.360Z,13.60
2018-03-06T14:22:23.820Z,13.50
2018-03-06T14:24:51.289Z,13.40
2018-03-06T14:27:18.741Z,13.10
2018-03-06T14:29:46.212Z,13.40
2018-03-06T14:32:13.702Z,13.50
2018-03-06T14:34:41.127Z,13.40
2018-03-06T14:37:08.588Z,13.30
2018-03-06T14:39:36.045Z,12.90
2018-03-06T14:42:04.271Z,12.80
2018-03-06T14:44:31.748Z,12.80
2018-03-06T14:46:59.204Z,12.60
2018-03-06T14:49:26.703Z,12.50
2018-03-06T14:51:54.922Z,12.60
2018-03-06T14:54:22.401Z,12.60
2018-03-06T14:56:49.877Z,12.70
2018-03-06T14:59:18.113Z,12.40
2018-03-06T15:01:45.620Z,12.40
2018-03-06T15:04:13.828Z,12.40
2018-03-06T15:06:41.315Z,12.40
2018-03-06T15:09:08.776Z,12.40
2018-03-06T15:11:36.235Z,12.60
2018-03-06T15:14:03.694Z,12.80
2018-03-06T15:16:31.165Z,12.80
2018-03-06T15:18:59.481Z,12.40
2018-03-06T15:21:27.041Z,12.30
2018-03-06T15:23:54.494Z,12.60
2018-03-06T15:26:21.954Z,12.70
2018-03-06T15:28:50.148Z,12.90
2018-03-06T15:31:17.674Z,12.90
2018-03-06T15:33:45.125Z,12.80
2018-03-06T15:36:12.681Z,12.80
2018-03-06T15:38:40.154Z,12.90
2018-03-06T15:41:07.617Z,12.90
2018-03-06T15:43:35.062Z,12.90
2018-03-06T15:46:02.686Z,12.90
2018-03-06T15:48:30.884Z,12.70
2018-03-06T15:50:58.383Z,12.60
2018-03-06T15:53:25.816Z,12.60
2018-03-06T15:55:53.312Z,12.70
2018-03-06T15:58:20.775Z,12.70
2018-03-06T16:00:48.997Z,12.70
2018-03-06T16:03:16.506Z,12.70
2018-03-06T16:05:43.963Z,12.60
2018-03-06T16:08:11.437Z,12.60
2018-03-06T16:10:39.744Z,12.30
2018-03-06T16:13:07.204Z,12.30
2018-03-06T16:15:34.745Z,12.30
2018-03-06T16:18:02.226Z,12.20
2018-03-06T16:20:29.687Z,12.10
2018-03-06T16:22:57.140Z,11.90
2018-03-06T16:25:24.715Z,11.70
2018-03-06T16:27:52.182Z,11.60
2018-03-06T16:30:19.725Z,11.60
2018-03-06T16:32:47.162Z,11.50
2018-03-06T16:35:15.128Z,11.30
2018-03-06T16:37:42.592Z,10.90
2018-03-06T16:40:10.068Z,10.80
2018-03-06T16:42:37.503Z,10.90
2018-03-06T16:45:04.969Z,11.00
2018-03-06T16:47:32.420Z,11.10
2018-03-06T16:49:59.919Z,11.20
2018-03-06T16:52:28.150Z,11.20
2018-03-06T16:54:55.624Z,11.20
2018-03-06T16:57:23.148Z,11.10
2018-03-06T16:59:50.624Z,11.00
2018-03-06T17:02:18.079Z,11.00
2018-03-06T17:04:45.560Z,11.00
2018-03-06T17:07:13.020Z,11.00
2018-03-06T17:09:40.517Z,10.80
2018-03-06T17:12:08.248Z,10.70
2018-03-06T17:14:35.698Z,10.70
2018-03-06T17:17:03.172Z,10.60
2018-03-06T17:19:31.399Z,10.50
2018-03-06T17:21:58.863Z,10.40
2018-03-06T17:24:26.340Z,10.50
2018-03-06T17:26:54.555Z,10.30
2018-03-06T17:29:22.027Z,10.30
2018-03-06T17:31:49.483Z,10.30
2018-03-06T17:34:16.964Z,10.20
2018-03-06T17:36:44.428Z,10.10
2018-03-06T17:39:11.912Z,10.10
2018-03-06T17:41:40.191Z,10.00
2018-03-06T17:44:08.442Z,10.00
2018-03-06T17:46:35.896Z,9.90
2018-03-06T17:49:03.379Z,10.00
2018-03-06T17:51:30.828Z,9.90
2018-03-06T17:53:58.317Z,9.90
2018-03-06T17:56:26.063Z,9.90
2018-03-06T17:58:53.624Z,9.80
2018-03-06T18:01:21.113Z,9.70
2018-03-06T18:03:48.576Z,9.70
2018-03-06T18:06:16.064Z,9.70
2018-03-06T18:08:45.053Z,9.70
2018-03-06T18:11:13.328Z,9.70
2018-03-06T18:13:41.550Z,9.70
2018-03-06T18:16:09.096Z,9.70
2018-03-06T18:18:36.540Z,9.60
2018-03-06T18:21:04.102Z,9.60
2018-03-06T18:23:31.566Z,9.60
2018-03-06T18:25:59.036Z,9.50
2018-03-06T18:28:26.487Z,9.40
2018-03-06T18:30:54.106Z,9.40
2018-03-06T18:33:22.414Z,9.30
2018-03-06T18:35:49.923Z,9.30
2018-03-06T18:38:17.373Z,9.30
2018-03-06T18:40:44.864Z,9.30
2018-03-06T18:43:13.136Z,9.20
2018-03-06T18:45:41.360Z,9.10
2018-03-06T18:48:08.812Z,9.10
2018-03-06T18:50:48.107Z,9.10
2018-03-06T18:53:15.603Z,9.10
2018-03-06T18:55:43.039Z,9.00
2018-03-06T18:58:10.568Z,9.00
2018-03-06T19:03:51.586Z,9.00
2018-03-06T19:06:23.981Z,9.00
2018-03-06T19:08:51.520Z,9.10
2018-03-06T19:11:18.987Z,9.00
2018-03-06T19:13:46.452Z,9.00
2018-03-06T19:16:13.913Z,9.00
2018-03-06T19:18:41.398Z,8.90
2018-03-06T19:21:08.859Z,9.00
2018-03-06T19:23:36.346Z,8.90
2018-03-06T19:26:04.551Z,9.00
2018-03-06T19:28:32.051Z,8.90
2018-03-06T19:30:59.589Z,9.00
2018-03-06T19:33:26.995Z,8.90
2018-03-06T19:35:54.464Z,8.90
2018-03-06T19:38:21.919Z,8.90
2018-03-06T19:40:50.190Z,8.90
2018-03-06T19:43:17.639Z,8.90
2018-03-06T19:45:45.143Z,8.80
2018-03-06T19:48:12.668Z,8.90
2018-03-06T19:50:40.224Z,8.80
2018-03-06T19:53:07.680Z,8.90
2018-03-06T19:55:35.186Z,8.80
2018-03-06T19:58:02.843Z,8.80
2018-03-06T20:00:30.286Z,8.80
2018-03-06T20:02:57.768Z,8.80
2018-03-06T20:05:26.005Z,8.80
2018-03-06T20:07:53.490Z,8.80
2018-03-06T20:10:21.237Z,8.80
2018-03-06T20:12:48.759Z,8.80
2018-03-06T20:15:17.852Z,8.90
2018-03-06T20:17:45.342Z,8.80
2018-03-06T20:20:12.786Z,8.70
2018-03-06T20:22:40.340Z,8.70
2018-03-06T20:25:14.294Z,8.70
2018-03-06T20:27:41.861Z,8.70
2018-03-06T20:30:09.397Z,8.70
2018-03-06T20:32:42.595Z,8.50
2018-03-06T20:35:10.981Z,8.50
2018-03-06T20:37:38.631Z,8.50
2018-03-06T20:40:11.708Z,8.40
2018-03-06T20:42:39.235Z,8.40
2018-03-06T20:45:06.739Z,8.30
2018-03-06T20:47:35.111Z,8.20
2018-03-06T20:50:02.770Z,8.20
2018-03-06T20:52:30.388Z,8.10
2018-03-06T20:55:03.626Z,8.20
2018-03-06T20:57:31.166Z,8.10
2018-03-06T20:59:58.663Z,8.00
2018-03-06T21:02:26.129Z,8.00
2018-03-06T21:04:53.631Z,8.00
2018-03-06T21:07:21.917Z,8.00
2018-03-06T21:09:49.389Z,8.00
2018-03-06T21:12:16.828Z,7.90
2018-03-06T21:14:44.313Z,7.90
2018-03-06T21:17:11.792Z,8.00
2018-03-06T21:19:39.268Z,8.00
2018-03-06T21:22:06.755Z,7.90
2018-03-06T21:24:34.281Z,7.90
2018-03-06T21:27:01.741Z,7.90
2018-03-06T21:29:29.211Z,7.80
2018-03-06T21:31:57.445Z,7.80
2018-03-06T21:34:25.829Z,7.80
2018-03-06T21:36:53.354Z,7.90
2018-03-06T21:39:21.595Z,7.80
2018-03-06T21:41:49.074Z,7.80
2018-03-06T21:44:17.306Z,7.80
2018-03-06T21:46:44.809Z,7.80
2018-03-06T21:49:13.071Z,7.80
2018-03-06T21:51:40.528Z,7.80
2018-03-06T21:54:08.027Z,7.80
2018-03-06T21:56:36.263Z,7.80
2018-03-06T21:59:03.741Z,7.80
2018-03-06T22:01:31.984Z,7.80
2018-03-06T22:03:59.439Z,7.80
2018-03-06T22:06:26.918Z,7.90
2018-03-06T22:08:54.376Z,7.80
2018-03-06T22:11:22.642Z,7.90
2018-03-06T22:13:50.138Z,7.80
2018-03-06T22:16:17.572Z,7.90
2018-03-06T22:18:45.854Z,7.90
2018-03-06T22:21:13.300Z,7.90
2018-03-06T22:23:41.556Z,7.90
2018-03-06T22:26:09.013Z,7.90
2018-03-06T22:28:36.512Z,7.80
2018-03-06T22:31:03.949Z,7.80
2018-03-06T22:33:32.284Z,7.80
2018-03-06T22:35:59.716Z,7.90
2018-03-06T22:38:27.269Z,7.80
2018-03-06T22:40:55.458Z,7.80
2018-03-06T22:43:22.911Z,7.80
2018-03-06T22:45:51.018Z,7.90
2018-03-06T22:48:18.485Z,7.80
2018-03-06T22:50:46.432Z,7.90
2018-03-06T22:53:13.929Z,7.90
2018-03-06T22:55:41.377Z,7.80
2018-03-06T22:58:09.621Z,7.80
2018-03-06T23:00:37.084Z,7.70
2018-03-06T23:03:04.596Z,7.70
2018-03-06T23:05:32.099Z,7.80
2018-03-06T23:07:59.566Z,7.80
2018-03-06T23:10:27.793Z,7.90
2018-03-06T23:12:55.304Z,7.80
2018-03-06T23:15:23.536Z,7.80
2018-03-06T23:17:51.005Z,7.80
2018-03-06T23:20:18.528Z,7.80
2018-03-06T23:22:45.975Z,7.90
2018-03-06T23:25:13.436Z,7.90
2018-03-06T23:27:40.912Z,7.70
2018-03-06T23:30:08.509Z,7.70
2018-03-06T23:32:35.998Z,7.70
2018-03-06T23:35:03.468Z,7.70
2018-03-06T23:37:31.152Z,7.70
2018-03-06T23:39:58.612Z,7.70
2018-03-06T23:42:26.208Z,7.70
2018-03-06T23:44:57.738Z,7.70
2018-03-06T23:47:25.284Z,7.70
2018-03-06T23:49:53.362Z,7.70
2018-03-06T23:52:21.635Z,7.70
2018-03-06T23:54:49.076Z,7.70
2018-03-06T23:57:16.647Z,7.70
2018-03-06T23:59:44.089Z,7.60
